createdAt,value
2023-01-10T00:00:44.321Z,5.80
2023-01-10T00:03:10.800Z,4.63
2023-01-10T00:05:32.240Z,3.30
2023-01-10T00:07:53.676Z,4.83
2023-01-10T00:10:15.365Z,5.30
2023-01-10T00:12:55.556Z,4.07
2023-01-10T00:15:17.050Z,3.13
2023-01-10T00:17:38.551Z,8.03
2023-01-10T00:19:59.944Z,3.47
2023-01-10T00:22:24.974Z,4.97
2023-01-10T00:24:46.378Z,5.93
2023-01-10T00:27:09.835Z,5.40
2023-01-10T00:29:31.395Z,3.07
2023-01-10T00:31:52.888Z,5.60
2023-01-10T00:34:14.771Z,4.43
2023-01-10T00:36:36.179Z,4.03
2023-01-10T00:38:57.575Z,4.30
2023-01-10T00:41:37.382Z,5.03
2023-01-10T00:43:58.902Z,4.00
2023-01-10T00:46:20.391Z,3.27
2023-01-10T00:48:41.813Z,4.80
2023-01-10T00:51:03.951Z,4.57
2023-01-10T00:53:25.510Z,5.00
2023-01-10T00:55:46.974Z,8.00
2023-01-10T00:58:11.621Z,6.60
2023-01-10T01:00:33.077Z,4.37
2023-01-10T01:02:54.854Z,4.00
2023-01-10T01:05:16.293Z,4.17
2023-01-10T01:07:37.739Z,3.67
2023-01-10T01:10:17.837Z,3.10
2023-01-10T01:12:39.342Z,4.17
2023-01-10T01:15:00.760Z,5.37
2023-01-10T01:17:22.210Z,2.90
2023-01-10T01:19:43.609Z,4.37
2023-01-10T01:22:05.025Z,4.67
2023-01-10T01:24:26.434Z,4.63
2023-01-10T01:26:47.848Z,5.60
2023-01-10T01:29:09.541Z,3.53
2023-01-10T01:31:31.051Z,6.10
2023-01-10T01:33:52.670Z,5.63
2023-01-10T01:36:14.381Z,4.23
2023-01-10T01:38:37.120Z,5.30
2023-01-10T01:40:58.559Z,3.40
2023-01-10T01:43:29.028Z,3.93
2023-01-10T01:45:50.719Z,6.27
2023-01-10T01:48:21.012Z,5.67
2023-01-10T01:50:45.474Z,6.10
2023-01-10T01:53:33.206Z,7.67
2023-01-10T01:55:58.146Z,5.93
2023-01-10T01:58:24.983Z,8.00
2023-01-10T02:00:46.637Z,5.10
2023-01-10T02:03:08.376Z,4.97
2023-01-10T02:05:33.937Z,4.80
2023-01-10T02:07:58.225Z,6.03
2023-01-10T02:10:52.722Z,5.63
2023-01-10T02:13:18.041Z,4.57
2023-01-10T02:15:40.206Z,8.63
2023-01-10T02:18:03.476Z,5.83
2023-01-10T02:20:26.638Z,4.83
2023-01-10T02:23:06.782Z,4.87
2023-01-10T02:25:47.235Z,5.27
2023-01-10T02:28:35.969Z,3.47
2023-01-10T02:31:15.674Z,3.77
2023-01-10T02:33:53.294Z,5.43
2023-01-10T02:36:35.234Z,4.53
2023-01-10T02:39:11.354Z,4.83
2023-01-10T02:41:56.744Z,2.67
2023-01-10T02:44:24.567Z,2.67
2023-01-10T02:46:48.543Z,3.13
2023-01-10T02:49:10.019Z,2.90
2023-01-10T02:51:33.546Z,2.40
2023-01-10T02:53:54.946Z,3.70
2023-01-10T02:56:37.017Z,3.13
2023-01-10T02:59:30.334Z,3.57
2023-01-10T03:02:22.901Z,4.20
2023-01-10T03:05:15.401Z,5.20
2023-01-10T03:07:45.642Z,6.17
2023-01-10T03:10:17.880Z,4.13
2023-01-10T03:12:53.415Z,4.77
2023-01-10T03:15:19.300Z,5.07
2023-01-10T03:17:43.429Z,8.33
2023-01-10T03:20:07.215Z,6.97
2023-01-10T03:22:31.286Z,5.07
2023-01-10T03:24:56.136Z,4.20
2023-01-10T03:27:29.677Z,3.00
2023-01-10T03:30:03.204Z,6.33
2023-01-10T03:32:28.345Z,5.93
2023-01-10T03:34:50.037Z,5.77
2023-01-10T03:37:25.054Z,3.03
2023-01-10T03:39:52.654Z,4.23
2023-01-10T03:42:21.699Z,7.53
2023-01-10T03:44:55.255Z,6.40
2023-01-10T03:47:31.005Z,5.40
2023-01-10T03:50:13.726Z,4.50
2023-01-10T03:52:36.619Z,3.80
2023-01-10T03:54:59.054Z,4.30
2023-01-10T03:57:24.959Z,3.73
2023-01-10T03:59:48.606Z,5.43
2023-01-10T04:02:10.062Z,5.50
2023-01-10T04:04:32.506Z,6.70
2023-01-10T04:06:53.933Z,6.20
2023-01-10T04:09:15.349Z,4.73
2023-01-10T04:11:36.932Z,9.87
2023-01-10T04:13:58.353Z,5.97
2023-01-10T04:16:20.351Z,4.73
2023-01-10T04:18:41.843Z,5.93
2023-01-10T04:21:03.288Z,7.30
2023-01-10T04:23:24.683Z,8.97
2023-01-10T04:25:49.152Z,8.47
2023-01-10T04:28:10.561Z,6.23
2023-01-10T04:30:32.011Z,7.57
2023-01-10T04:32:53.696Z,5.43
2023-01-10T04:35:15.295Z,5.00
2023-01-10T04:37:37.873Z,6.80
2023-01-10T04:39:59.310Z,7.43
2023-01-10T04:42:20.735Z,5.60
2023-01-10T04:44:42.183Z,5.30
2023-01-10T04:47:03.624Z,6.27
2023-01-10T04:49:25.073Z,6.80
2023-01-10T04:51:46.574Z,7.80
2023-01-10T04:54:08.000Z,9.90
2023-01-10T04:56:29.445Z,5.00
2023-01-10T04:58:53.860Z,7.73
2023-01-10T05:01:22.766Z,9.23
2023-01-10T05:03:44.456Z,8.57
2023-01-10T05:06:06.133Z,6.07
2023-01-10T05:08:27.623Z,6.73
2023-01-10T05:10:49.071Z,9.13
2023-01-10T05:13:10.474Z,7.33
2023-01-10T05:15:31.882Z,9.67
2023-01-10T05:18:01.299Z,11.83
2023-01-10T05:20:22.715Z,8.87
2023-01-10T05:22:44.310Z,9.77
2023-01-10T05:25:06.716Z,7.23
2023-01-10T05:27:28.143Z,6.27
2023-01-10T05:29:49.642Z,6.93
2023-01-10T05:32:11.520Z,8.23
2023-01-10T05:34:32.981Z,10.50
2023-01-10T05:36:54.417Z,9.60
2023-01-10T05:39:15.858Z,9.50
2023-01-10T05:41:37.289Z,8.03
2023-01-10T05:43:58.695Z,7.20
2023-01-10T05:46:20.133Z,8.80
2023-01-10T05:48:41.708Z,7.00
2023-01-10T05:51:03.860Z,10.73
2023-01-10T05:53:25.298Z,8.60
2023-01-10T05:55:57.455Z,11.20
2023-01-10T05:58:18.904Z,10.43
2023-01-10T06:00:40.409Z,13.63
2023-01-10T06:03:01.878Z,10.23
2023-01-10T06:05:24.154Z,7.23
2023-01-10T06:07:45.598Z,6.60
2023-01-10T06:10:07.467Z,5.40
2023-01-10T06:12:29.050Z,7.70
2023-01-10T06:14:50.515Z,8.30
2023-01-10T06:17:12.215Z,8.13
2023-01-10T06:19:33.607Z,9.40
2023-01-10T06:21:55.019Z,8.30
2023-01-10T06:24:16.457Z,8.93
2023-01-10T06:26:37.876Z,9.47
2023-01-10T06:28:59.736Z,5.17
2023-01-10T06:31:22.709Z,7.33
2023-01-10T06:33:44.288Z,6.70
2023-01-10T06:36:06.072Z,8.27
2023-01-10T06:38:27.532Z,8.00
2023-01-10T06:40:48.959Z,7.07
2023-01-10T06:43:10.377Z,5.33
2023-01-10T06:45:31.879Z,9.43
2023-01-10T06:47:53.362Z,6.97
2023-01-10T06:50:14.827Z,9.23
2023-01-10T06:52:36.374Z,8.93
2023-01-10T06:54:57.794Z,12.27
2023-01-10T06:57:19.748Z,10.77
2023-01-10T06:59:41.153Z,6.67
2023-01-10T07:02:02.698Z,10.93
2023-01-10T07:04:24.442Z,9.17
2023-01-10T07:06:45.886Z,8.70
2023-01-10T07:09:08.027Z,8.80
2023-01-10T07:11:29.533Z,11.13
2023-01-10T07:13:54.021Z,11.03
2023-01-10T07:16:16.608Z,14.47
2023-01-10T07:18:39.896Z,14.73
2023-01-10T07:21:01.469Z,11.80
2023-01-10T07:23:22.877Z,13.30
2023-01-10T07:25:44.325Z,6.43
2023-01-10T07:28:05.906Z,11.90
2023-01-10T07:30:27.322Z,9.97
2023-01-10T07:32:58.363Z,10.47
2023-01-10T07:35:19.774Z,11.67
2023-01-10T07:37:41.332Z,12.80
2023-01-10T07:40:02.834Z,9.50
2023-01-10T07:42:24.491Z,10.20
2023-01-10T07:44:47.141Z,9.40
2023-01-10T07:47:09.817Z,11.07
2023-01-10T07:49:31.253Z,8.70
2023-01-10T07:51:52.779Z,14.07
2023-01-10T07:54:14.989Z,8.20
2023-01-10T07:56:36.451Z,9.10
2023-01-10T07:58:57.870Z,12.67
2023-01-10T08:01:19.341Z,12.03
2023-01-10T08:03:40.983Z,10.80
2023-01-10T08:06:08.015Z,7.47
2023-01-10T08:08:30.199Z,10.37
2023-01-10T08:10:51.736Z,10.43
2023-01-10T08:13:18.700Z,14.80
2023-01-10T08:15:40.603Z,11.00
2023-01-10T08:18:04.823Z,7.73
2023-01-10T08:20:26.553Z,9.80
2023-01-10T08:22:48.018Z,14.07
2023-01-10T08:25:10.052Z,10.03
2023-01-10T08:27:31.525Z,11.10
2023-01-10T08:29:52.943Z,12.40
2023-01-10T08:32:14.364Z,7.27
2023-01-10T08:34:35.784Z,9.03
2023-01-10T08:36:57.241Z,10.13
2023-01-10T08:39:20.508Z,5.97
2023-01-10T08:41:41.946Z,9.37
2023-01-10T08:44:03.369Z,5.83
2023-01-10T08:46:25.167Z,11.17
2023-01-10T08:48:47.056Z,10.83
2023-01-10T08:51:09.748Z,7.07
2023-01-10T08:53:31.955Z,8.23
2023-01-10T08:55:53.398Z,11.63
2023-01-10T08:58:15.172Z,8.30
2023-01-10T09:00:36.593Z,9.80
2023-01-10T09:02:58.126Z,6.77
2023-01-10T09:05:27.138Z,9.73
2023-01-10T09:07:49.350Z,6.53
2023-01-10T09:10:11.366Z,7.47
2023-01-10T09:12:51.805Z,8.10
2023-01-10T09:15:13.295Z,8.73
2023-01-10T09:17:34.717Z,7.00
2023-01-10T09:19:56.293Z,9.80
2023-01-10T09:22:17.783Z,5.13
2023-01-10T09:24:39.340Z,8.90
2023-01-10T09:27:00.795Z,6.63
2023-01-10T09:29:22.256Z,7.83
2023-01-10T09:31:43.822Z,8.90
2023-01-10T09:34:05.287Z,7.13
2023-01-10T09:36:26.732Z,6.17
2023-01-10T09:38:48.149Z,8.63
2023-01-10T09:41:24.808Z,6.00
2023-01-10T09:44:08.209Z,6.73
2023-01-10T09:46:54.200Z,8.50
2023-01-10T09:49:28.193Z,7.60
2023-01-10T09:51:53.185Z,7.93
2023-01-10T09:54:36.322Z,7.00
2023-01-10T09:57:00.492Z,9.10
2023-01-10T09:59:26.929Z,11.47
2023-01-10T10:01:54.841Z,10.63
2023-01-10T10:04:35.936Z,10.27
2023-01-10T10:06:57.446Z,6.17
2023-01-10T10:09:26.364Z,9.93
2023-01-10T10:12:26.496Z,8.93
2023-01-10T10:15:12.721Z,14.63
2023-01-10T10:17:57.720Z,6.57
2023-01-10T10:20:51.429Z,11.93
2023-01-10T10:23:28.061Z,8.37
2023-01-10T10:25:58.248Z,9.97
2023-01-10T10:28:37.373Z,9.40
2023-01-10T10:31:16.276Z,9.47
2023-01-10T10:33:59.953Z,9.67
2023-01-10T10:36:35.766Z,9.33
2023-01-10T10:39:01.148Z,8.27
2023-01-10T10:41:37.180Z,8.47
2023-01-10T10:44:04.236Z,8.53
2023-01-10T10:46:25.723Z,6.43
2023-01-10T10:48:59.193Z,8.13
2023-01-10T10:51:29.201Z,8.87
2023-01-10T10:53:50.975Z,11.93
2023-01-10T10:56:16.286Z,11.60
2023-01-10T10:58:41.559Z,6.63
2023-01-10T11:01:03.207Z,12.43
2023-01-10T11:03:31.253Z,9.00
2023-01-10T11:05:54.506Z,7.77
2023-01-10T11:08:18.253Z,12.50
2023-01-10T11:10:42.376Z,9.80
2023-01-10T11:13:25.941Z,8.30
2023-01-10T11:15:49.832Z,6.50
2023-01-10T11:18:14.390Z,9.03
2023-01-10T11:20:36.884Z,9.80
2023-01-10T11:22:58.362Z,7.37
2023-01-10T11:25:22.863Z,12.80
2023-01-10T11:28:00.917Z,10.17
2023-01-10T11:30:29.115Z,9.57
2023-01-10T11:33:07.147Z,11.47
2023-01-10T11:35:35.392Z,10.20
2023-01-10T11:38:19.577Z,10.17
2023-01-10T11:41:04.201Z,7.97
2023-01-10T11:43:30.141Z,8.87
2023-01-10T11:46:17.996Z,14.80
2023-01-10T11:51:31.696Z,6.57
2023-01-10T11:53:59.590Z,13.40
2023-01-10T11:56:34.985Z,9.23
2023-01-10T11:58:59.793Z,8.63
2023-01-10T12:01:32.761Z,10.87
2023-01-10T12:03:55.139Z,9.13
2023-01-10T12:06:17.685Z,12.73
2023-01-10T12:08:42.468Z,14.50
2023-01-10T12:11:13.010Z,11.07
2023-01-10T12:13:52.224Z,12.63
2023-01-10T12:16:22.386Z,12.30
2023-01-10T12:18:44.439Z,10.03
2023-01-10T12:21:06.653Z,8.70
2023-01-10T12:23:30.299Z,12.00
2023-01-10T12:26:07.106Z,12.23
2023-01-10T12:28:34.192Z,10.00
2023-01-10T12:30:59.489Z,10.00
2023-01-10T12:33:28.223Z,13.40
2023-01-10T12:36:02.282Z,8.90
2023-01-10T12:38:50.906Z,9.53
2023-01-10T12:41:37.367Z,9.57
2023-01-10T12:44:11.418Z,12.70
2023-01-10T12:47:05.349Z,12.17
2023-01-10T12:49:35.194Z,10.30
2023-01-10T12:52:01.866Z,9.80
2023-01-10T12:54:26.428Z,8.53
2023-01-10T12:56:48.675Z,15.17
2023-01-10T12:59:36.664Z,9.57
2023-01-10T13:02:02.191Z,13.13
2023-01-10T13:04:26.371Z,10.00
2023-01-10T13:06:49.249Z,15.83
2023-01-10T13:09:20.431Z,15.57
2023-01-10T13:12:11.179Z,13.97
2023-01-10T13:14:46.207Z,13.00
2023-01-10T13:17:33.041Z,10.97
2023-01-10T13:20:16.349Z,10.93
2023-01-10T13:22:37.819Z,8.83
2023-01-10T13:25:02.015Z,9.30
2023-01-10T13:27:26.449Z,11.80
2023-01-10T13:29:49.114Z,17.07
2023-01-10T13:32:31.002Z,16.73
2023-01-10T13:34:52.779Z,10.77
2023-01-10T13:37:23.356Z,11.93
2023-01-10T13:39:51.054Z,13.03
2023-01-10T13:42:43.303Z,8.77
2023-01-10T13:45:04.662Z,11.47
2023-01-10T13:47:41.050Z,14.30
2023-01-10T13:50:23.360Z,10.63
2023-01-10T13:52:44.875Z,12.13
2023-01-10T13:55:27.647Z,10.30
2023-01-10T13:57:50.771Z,16.80
2023-01-10T14:00:43.770Z,18.17
2023-01-10T14:03:05.218Z,14.50
2023-01-10T14:05:27.667Z,12.60
2023-01-10T14:07:51.289Z,8.50
2023-01-10T14:10:22.959Z,9.87
2023-01-10T14:12:54.344Z,11.20
2023-01-10T14:15:25.911Z,14.60
2023-01-10T14:17:59.259Z,14.67
2023-01-10T14:20:20.894Z,10.17
2023-01-10T14:23:06.922Z,14.17
2023-01-10T14:25:29.207Z,14.50
2023-01-10T14:27:52.528Z,8.77
2023-01-10T14:30:21.199Z,13.60
2023-01-10T14:32:43.901Z,13.23
2023-01-10T14:35:08.988Z,12.57
2023-01-10T14:37:37.655Z,9.73
2023-01-10T14:39:59.858Z,13.57
2023-01-10T14:42:21.817Z,10.47
2023-01-10T14:45:03.808Z,10.00
2023-01-10T14:47:28.870Z,7.57
2023-01-10T14:49:53.898Z,12.40
2023-01-10T14:52:24.499Z,14.93
2023-01-10T14:54:47.225Z,13.10
2023-01-10T14:57:23.234Z,7.07
2023-01-10T14:59:44.678Z,8.77
2023-01-10T15:02:25.554Z,12.43
2023-01-10T15:04:57.352Z,12.87
2023-01-10T15:07:22.706Z,11.50
2023-01-10T15:09:51.715Z,13.53
2023-01-10T15:12:15.012Z,13.17
2023-01-10T15:14:37.576Z,7.27
2023-01-10T15:17:02.441Z,9.13
2023-01-10T15:19:33.113Z,8.40
2023-01-10T15:21:54.546Z,14.17
2023-01-10T15:24:37.501Z,10.07
2023-01-10T15:27:11.470Z,12.73
2023-01-10T15:29:33.878Z,16.13
2023-01-10T15:32:03.583Z,10.83
2023-01-10T15:34:31.484Z,10.23
2023-01-10T15:36:55.732Z,9.77
2023-01-10T15:39:24.111Z,12.07
2023-01-10T15:41:45.844Z,16.37
2023-01-10T15:44:45.178Z,12.67
2023-01-10T15:47:34.384Z,16.13
2023-01-10T15:49:55.876Z,9.73
2023-01-10T15:52:23.987Z,12.00
2023-01-10T15:54:45.395Z,14.20
2023-01-10T15:57:18.080Z,13.73
2023-01-10T15:59:46.382Z,13.33
2023-01-10T16:02:33.927Z,13.93
2023-01-10T16:05:07.351Z,14.67
2023-01-10T16:07:34.550Z,8.73
2023-01-10T16:10:08.439Z,11.77
2023-01-10T16:12:53.931Z,13.73
2023-01-10T16:15:19.315Z,15.27
2023-01-10T16:17:40.786Z,11.03
2023-01-10T16:20:02.199Z,14.27
2023-01-10T16:22:23.699Z,14.77
2023-01-10T16:24:45.200Z,10.97
2023-01-10T16:27:06.677Z,14.57
2023-01-10T16:29:28.226Z,11.20
2023-01-10T16:31:52.176Z,22.47
2023-01-10T16:34:13.775Z,16.60
2023-01-10T16:36:35.602Z,14.00
2023-01-10T16:38:57.075Z,13.60
2023-01-10T16:41:37.250Z,11.60
2023-01-10T16:43:58.842Z,12.00
2023-01-10T16:46:20.267Z,12.13
2023-01-10T16:48:41.696Z,10.80
2023-01-10T16:51:16.388Z,9.47
2023-01-10T16:53:37.826Z,15.13
2023-01-10T16:56:00.798Z,11.13
2023-01-10T16:58:22.347Z,10.97
2023-01-10T17:00:47.019Z,15.70
2023-01-10T17:03:13.471Z,15.40
2023-01-10T17:05:36.015Z,16.23
2023-01-10T17:07:57.476Z,10.37
2023-01-10T17:10:18.989Z,12.30
2023-01-10T17:12:42.294Z,17.30
2023-01-10T17:15:06.822Z,11.53
2023-01-10T17:17:29.248Z,11.37
2023-01-10T17:19:50.692Z,12.97
2023-01-10T17:22:12.103Z,12.50
2023-01-10T17:24:33.546Z,14.43
2023-01-10T17:26:54.959Z,12.53
2023-01-10T17:29:16.421Z,11.93
2023-01-10T17:31:38.031Z,13.23
2023-01-10T17:33:59.516Z,11.80
2023-01-10T17:36:22.496Z,14.73
2023-01-10T17:38:43.983Z,14.03
2023-01-10T17:41:07.335Z,13.47
2023-01-10T17:43:29.835Z,18.50
2023-01-10T17:45:51.808Z,15.73
2023-01-10T17:48:16.026Z,11.77
2023-01-10T17:50:37.455Z,13.80
2023-01-10T17:52:58.939Z,16.40
2023-01-10T17:55:20.359Z,8.70
2023-01-10T17:57:41.782Z,9.80
2023-01-10T18:00:04.138Z,10.80
2023-01-10T18:02:25.659Z,14.43
2023-01-10T18:04:47.199Z,9.27
2023-01-10T18:07:08.608Z,9.20
2023-01-10T18:09:30.032Z,14.00
2023-01-10T18:11:51.445Z,11.63
2023-01-10T18:14:31.554Z,13.67
2023-01-10T18:16:53.054Z,12.67
2023-01-10T18:19:14.585Z,10.40
2023-01-10T18:21:36.002Z,12.63
2023-01-10T18:23:59.516Z,14.87
2023-01-10T18:26:20.957Z,14.30
2023-01-10T18:28:44.304Z,10.40
2023-01-10T18:31:08.316Z,14.00
2023-01-10T18:33:30.087Z,8.97
2023-01-10T18:35:51.586Z,14.37
2023-01-10T18:38:13.019Z,13.17
2023-01-10T18:40:34.485Z,14.63
2023-01-10T18:42:57.634Z,15.13
2023-01-10T18:45:19.179Z,12.07
2023-01-10T18:47:40.635Z,13.47
2023-01-10T18:50:02.108Z,12.97
2023-01-10T18:52:25.017Z,12.93
2023-01-10T18:54:48.065Z,17.67
2023-01-10T18:57:09.488Z,10.97
2023-01-10T18:59:30.994Z,18.97
2023-01-10T19:01:52.527Z,16.10
2023-01-10T19:04:14.014Z,12.17
2023-01-10T19:06:35.426Z,10.97
2023-01-10T19:08:57.223Z,11.17
2023-01-10T19:11:19.727Z,15.50
2023-01-10T19:13:41.432Z,18.60
2023-01-10T19:16:15.612Z,15.13
2023-01-10T19:18:37.129Z,13.00
2023-01-10T19:20:58.557Z,16.53
2023-01-10T19:23:20.062Z,9.60
2023-01-10T19:25:41.476Z,15.07
2023-01-10T19:28:03.027Z,15.47
2023-01-10T19:30:24.446Z,12.37
2023-01-10T19:32:45.899Z,15.80
2023-01-10T19:35:08.542Z,14.20
2023-01-10T19:37:31.400Z,10.53
2023-01-10T19:39:52.810Z,12.03
2023-01-10T19:42:14.228Z,10.90
2023-01-10T19:44:35.643Z,15.37
2023-01-10T19:46:57.165Z,10.77
2023-01-10T19:49:19.628Z,7.27
2023-01-10T19:51:41.265Z,8.67
2023-01-10T19:54:03.659Z,11.43
2023-01-10T19:56:25.151Z,8.67
2023-01-10T19:58:46.685Z,12.10
2023-01-10T20:01:09.789Z,13.43
2023-01-10T20:03:32.075Z,13.73
2023-01-10T20:05:53.499Z,9.63
2023-01-10T20:08:14.945Z,17.43
2023-01-10T20:10:36.388Z,8.20
2023-01-10T20:12:57.812Z,9.57
2023-01-10T20:15:19.289Z,12.67
2023-01-10T20:17:40.879Z,12.53
2023-01-10T20:20:02.416Z,17.20
2023-01-10T20:22:23.859Z,10.93
2023-01-10T20:24:45.260Z,11.20
2023-01-10T20:27:09.408Z,9.67
2023-01-10T20:29:30.842Z,10.53
2023-01-10T20:31:55.817Z,15.93
2023-01-10T20:34:17.266Z,8.87
2023-01-10T20:36:38.753Z,7.20
2023-01-10T20:39:00.299Z,9.53
2023-01-10T20:41:25.185Z,12.53
2023-01-10T20:43:46.655Z,11.90
2023-01-10T20:46:13.318Z,11.27
2023-01-10T20:48:34.893Z,12.47
2023-01-10T20:50:56.317Z,12.27
2023-01-10T20:53:17.747Z,10.83
2023-01-10T20:55:39.535Z,15.00
2023-01-10T20:58:00.981Z,9.13
2023-01-10T21:00:22.453Z,11.60
2023-01-10T21:02:43.964Z,11.13
2023-01-10T21:05:05.783Z,13.93
2023-01-10T21:07:27.197Z,11.00
2023-01-10T21:09:49.019Z,11.23
2023-01-10T21:12:22.936Z,11.27
2023-01-10T21:14:45.368Z,9.90
2023-01-10T21:17:06.803Z,9.40
2023-01-10T21:19:28.229Z,9.83
2023-01-10T21:21:49.758Z,10.10
2023-01-10T21:24:11.249Z,8.30
2023-01-10T21:26:32.634Z,10.40
2023-01-10T21:28:54.061Z,7.57
2023-01-10T21:31:18.109Z,8.83
2023-01-10T21:33:39.626Z,10.90
2023-01-10T21:36:01.135Z,7.13
2023-01-10T21:38:22.621Z,11.10
2023-01-10T21:40:44.042Z,8.83
2023-01-10T21:43:05.538Z,7.87
2023-01-10T21:45:28.484Z,14.10
2023-01-10T21:47:50.799Z,14.37
2023-01-10T21:50:13.116Z,11.27
2023-01-10T21:52:34.863Z,11.83
2023-01-10T21:54:56.476Z,10.60
2023-01-10T21:57:22.027Z,10.13
2023-01-10T21:59:43.434Z,11.63
2023-01-10T22:02:04.867Z,11.23
2023-01-10T22:04:26.392Z,11.40
2023-01-10T22:06:47.903Z,9.83
2023-01-10T22:09:09.377Z,10.27
2023-01-10T22:11:30.815Z,9.33
2023-01-10T22:13:54.653Z,9.40
2023-01-10T22:16:16.089Z,7.50
2023-01-10T22:18:37.564Z,8.93
2023-01-10T22:20:59.567Z,9.73
2023-01-10T22:23:21.509Z,11.37
2023-01-10T22:25:42.909Z,7.97
2023-01-10T22:28:04.410Z,11.57
2023-01-10T22:30:25.981Z,12.70
2023-01-10T22:32:47.436Z,7.73
2023-01-10T22:35:09.015Z,8.57
2023-01-10T22:37:30.495Z,10.23
2023-01-10T22:39:51.896Z,8.20
2023-01-10T22:42:13.507Z,8.13
2023-01-10T22:44:34.953Z,7.60
2023-01-10T22:46:56.403Z,6.47
2023-01-10T22:49:18.199Z,5.93
2023-01-10T22:51:39.626Z,6.17
2023-01-10T22:54:01.264Z,8.97
2023-01-10T22:56:24.042Z,10.00
2023-01-10T22:58:48.319Z,7.03
2023-01-10T23:01:09.729Z,7.40
2023-01-10T23:03:31.209Z,6.80
2023-01-10T23:05:56.985Z,9.70
2023-01-10T23:08:18.408Z,10.83
2023-01-10T23:10:40.206Z,11.27
2023-01-10T23:13:05.119Z,6.27
2023-01-10T23:15:26.556Z,6.50
2023-01-10T23:17:47.995Z,7.07
2023-01-10T23:20:10.158Z,6.23
2023-01-10T23:22:31.590Z,11.03
2023-01-10T23:24:53.421Z,6.90
2023-01-10T23:27:15.354Z,5.80
2023-01-10T23:29:36.792Z,7.77
2023-01-10T23:31:58.266Z,5.70
2023-01-10T23:34:19.784Z,6.53
2023-01-10T23:36:41.226Z,6.00
2023-01-10T23:39:02.678Z,6.27
2023-01-10T23:41:24.116Z,6.40
2023-01-10T23:43:45.537Z,3.63
2023-01-10T23:46:07.161Z,5.90
2023-01-10T23:48:29.548Z,11.20
2023-01-10T23:50:51.497Z,5.17
2023-01-10T23:53:13.027Z,8.00
2023-01-10T23:55:34.801Z,5.57
2023-01-10T23:57:56.469Z,5.97
